sensor_id;sensor_type;location;lat;lon;timestamp;pressure;altitude;pressure_sealevel;temperature;humidity
5062;BME280;2351;50.812;12.872;2023-05-20T00:00:17;98538.41;;;10.97;92.54
5062;BME280;2351;50.812;12.872;2023-05-20T00:02:49;98535.88;;;10.96;92.70
5062;BME280;2351;50.812;12.872;2023-05-20T00:05:21;98531.81;;;10.92;92.68
5062;BME280;2351;50.812;12.872;2023-05-20T00:07:52;98530.13;;;10.91;92.86
5062;BME280;2351;50.812;12.872;2023-05-20T00:10:24;98530.34;;;10.88;93.02
5062;BME280;2351;50.812;12.872;2023-05-20T00:12:56;98523.72;;;10.82;92.97
5062;BME280;2351;50.812;12.872;2023-05-20T00:15:29;98536.34;;;10.78;93.80
5062;BME280;2351;50.812;12.872;2023-05-20T00:18:01;98534.66;;;10.77;93.92
5062;BME280;2351;50.812;12.872;2023-05-20T00:20:33;98535.63;;;10.76;94.10
5062;BME280;2351;50.812;12.872;2023-05-20T00:23:05;98529.84;;;10.71;94.14
5062;BME280;2351;50.812;12.872;2023-05-20T00:25:36;98528.66;;;10.64;95.14
5062;BME280;2351;50.812;12.872;2023-05-20T00:28:08;98526.97;;;10.63;95.27
5062;BME280;2351;50.812;12.872;2023-05-20T00:30:41;98524.81;;;10.68;95.15
5062;BME280;2351;50.812;12.872;2023-05-20T00:33:13;98521.06;;;10.70;95.21
5062;BME280;2351;50.812;12.872;2023-05-20T00:35:45;98524.19;;;10.64;95.86
5062;BME280;2351;50.812;12.872;2023-05-20T00:38:16;98526.72;;;10.66;95.56
5062;BME280;2351;50.812;12.872;2023-05-20T00:40:48;98525.28;;;10.62;95.77
5062;BME280;2351;50.812;12.872;2023-05-20T00:43:20;98520.81;;;10.62;96.20
5062;BME280;2351;50.812;12.872;2023-05-20T00:45:55;98520.44;;;10.55;96.24
5062;BME280;2351;50.812;12.872;2023-05-20T00:48:30;98513.22;;;10.58;96.81
5062;BME280;2351;50.812;12.872;2023-05-20T00:51:03;98516.00;;;10.56;96.34
5062;BME280;2351;50.812;12.872;2023-05-20T00:53:37;98521.63;;;10.51;96.62
5062;BME280;2351;50.812;12.872;2023-05-20T00:56:09;98527.16;;;10.48;97.08
5062;BME280;2351;50.812;12.872;2023-05-20T00:58:41;98524.50;;;10.48;97.06
5062;BME280;2351;50.812;12.872;2023-05-20T01:01:14;98532.81;;;10.44;97.12
5062;BME280;2351;50.812;12.872;2023-05-20T01:03:45;98526.16;;;10.38;97.85
5062;BME280;2351;50.812;12.872;2023-05-20T01:06:17;98519.19;;;10.37;98.16
5062;BME280;2351;50.812;12.872;2023-05-20T01:08:49;98525.44;;;10.36;98.29
5062;BME280;2351;50.812;12.872;2023-05-20T01:11:26;98529.16;;;10.33;98.64
5062;BME280;2351;50.812;12.872;2023-05-20T01:14:02;98523.97;;;10.32;99.14
5062;BME280;2351;50.812;12.872;2023-05-20T01:16:38;98517.63;;;10.34;99.09
5062;BME280;2351;50.812;12.872;2023-05-20T01:19:24;98513.16;;;10.35;99.14
5062;BME280;2351;50.812;12.872;2023-05-20T01:21:59;98515.81;;;10.35;99.14
5062;BME280;2351;50.812;12.872;2023-05-20T01:24:33;98508.72;;;10.35;99.54
5062;BME280;2351;50.812;12.872;2023-05-20T01:27:05;98504.38;;;10.34;99.58
5062;BME280;2351;50.812;12.872;2023-05-20T01:29:40;98508.59;;;10.25;99.97
5062;BME280;2351;50.812;12.872;2023-05-20T01:32:18;98519.00;;;10.16;100.00
5062;BME280;2351;50.812;12.872;2023-05-20T01:34:51;98510.44;;;10.12;100.00
5062;BME280;2351;50.812;12.872;2023-05-20T01:37:24;98524.63;;;10.11;100.00
5062;BME280;2351;50.812;12.872;2023-05-20T01:39:59;98515.22;;;10.07;100.00
5062;BME280;2351;50.812;12.872;2023-05-20T01:42:31;98514.28;;;10.08;100.00
5062;BME280;2351;50.812;12.872;2023-05-20T01:45:04;98518.50;;;10.10;100.00
5062;BME280;2351;50.812;12.872;2023-05-20T01:47:36;98516.19;;;10.06;100.00
5062;BME280;2351;50.812;12.872;2023-05-20T01:50:08;98517.63;;;9.99;100.00
5062;BME280;2351;50.812;12.872;2023-05-20T01:52:40;98508.97;;;9.97;100.00
5062;BME280;2351;50.812;12.872;2023-05-20T01:55:13;98509.78;;;9.97;100.00
5062;BME280;2351;50.812;12.872;2023-05-20T01:57:44;98502.44;;;9.89;100.00
5062;BME280;2351;50.812;12.872;2023-05-20T02:00:16;98506.91;;;9.89;100.00
5062;BME280;2351;50.812;12.872;2023-05-20T02:02:48;98505.44;;;9.85;100.00
5062;BME280;2351;50.812;12.872;2023-05-20T02:05:19;98505.31;;;9.86;100.00
5062;BME280;2351;50.812;12.872;2023-05-20T02:07:51;98496.31;;;9.89;100.00
5062;BME280;2351;50.812;12.872;2023-05-20T02:10:24;98506.03;;;9.88;100.00
5062;BME280;2351;50.812;12.872;2023-05-20T02:12:56;98498.31;;;9.85;100.00
5062;BME280;2351;50.812;12.872;2023-05-20T02:15:28;98491.66;;;9.68;100.00
5062;BME280;2351;50.812;12.872;2023-05-20T02:18:00;98489.56;;;9.60;100.00
5062;BME280;2351;50.812;12.872;2023-05-20T02:20:34;98488.22;;;9.55;100.00
5062;BME280;2351;50.812;12.872;2023-05-20T02:23:06;98493.47;;;9.43;100.00
5062;BME280;2351;50.812;12.872;2023-05-20T02:25:39;98497.28;;;9.39;100.00
5062;BME280;2351;50.812;12.872;2023-05-20T02:28:11;98495.19;;;9.31;100.00
5062;BME280;2351;50.812;12.872;2023-05-20T02:30:42;98486.53;;;9.29;100.00
5062;BME280;2351;50.812;12.872;2023-05-20T02:33:14;98487.63;;;9.27;100.00
5062;BME280;2351;50.812;12.872;2023-05-20T02:35:46;98489.59;;;9.23;100.00
5062;BME280;2351;50.812;12.872;2023-05-20T02:38:17;98495.31;;;9.17;100.00
5062;BME280;2351;50.812;12.872;2023-05-20T02:40:50;98493.63;;;9.16;100.00
5062;BME280;2351;50.812;12.872;2023-05-20T02:43:22;98487.31;;;9.18;100.00
5062;BME280;2351;50.812;12.872;2023-05-20T02:45:54;98494.28;;;9.19;100.00
5062;BME280;2351;50.812;12.872;2023-05-20T02:48:25;98493.41;;;9.19;100.00
5062;BME280;2351;50.812;12.872;2023-05-20T02:50:58;98491.72;;;9.18;100.00
5062;BME280;2351;50.812;12.872;2023-05-20T02:53:29;98490.28;;;9.14;100.00
5062;BME280;2351;50.812;12.872;2023-05-20T02:56:04;98493.16;;;9.11;100.00
5062;BME280;2351;50.812;12.872;2023-05-20T02:58:35;98496.81;;;9.08;100.00
5062;BME280;2351;50.812;12.872;2023-05-20T03:01:07;98496.00;;;9.08;100.00
5062;BME280;2351;50.812;12.872;2023-05-20T03:03:39;98496.00;;;9.08;100.00
5062;BME280;2351;50.812;12.872;2023-05-20T03:06:11;98484.56;;;9.07;100.00
5062;BME280;2351;50.812;12.872;2023-05-20T03:08:43;98494.09;;;9.10;100.00
5062;BME280;2351;50.812;12.872;2023-05-20T03:11:17;98485.22;;;9.11;100.00
5062;BME280;2351;50.812;12.872;2023-05-20T03:13:49;98473.72;;;9.12;100.00
5062;BME280;2351;50.812;12.872;2023-05-20T03:16:20;98464.09;;;9.11;100.00
5062;BME280;2351;50.812;12.872;2023-05-20T03:18:54;98465.78;;;9.12;100.00
5062;BME280;2351;50.812;12.872;2023-05-20T03:21:26;98465.66;;;9.13;100.00
5062;BME280;2351;50.812;12.872;2023-05-20T03:23:58;98471.91;;;9.12;100.00
5062;BME280;2351;50.812;12.872;2023-05-20T03:26:31;98475.41;;;9.13;100.00
5062;BME280;2351;50.812;12.872;2023-05-20T03:29:06;98473.78;;;9.10;100.00
5062;BME280;2351;50.812;12.872;2023-05-20T03:31:38;98480.91;;;9.10;100.00
5062;BME280;2351;50.812;12.872;2023-05-20T03:34:10;98481.72;;;9.10;100.00
5062;BME280;2351;50.812;12.872;2023-05-20T03:36:42;98486.06;;;9.11;100.00
5062;BME280;2351;50.812;12.872;2023-05-20T03:39:14;98481.72;;;9.10;100.00
5062;BME280;2351;50.812;12.872;2023-05-20T03:41:47;98483.53;;;9.10;100.00
5062;BME280;2351;50.812;12.872;2023-05-20T03:44:18;98485.22;;;9.11;100.00
5062;BME280;2351;50.812;12.872;2023-05-20T03:46:50;98497.25;;;9.15;100.00
5062;BME280;2351;50.812;12.872;2023-05-20T03:49:22;98502.53;;;9.15;100.00
5062;BME280;2351;50.812;12.872;2023-05-20T03:51:54;98497.13;;;9.16;100.00
5062;BME280;2351;50.812;12.872;2023-05-20T03:54:25;98499.78;;;9.16;100.00
5062;BME280;2351;50.812;12.872;2023-05-20T03:57:00;98504.19;;;9.16;100.00
5062;BME280;2351;50.812;12.872;2023-05-20T03:59:32;98509.94;;;9.10;100.00
5062;BME280;2351;50.812;12.872;2023-05-20T04:02:05;98509.19;;;9.08;100.00
5062;BME280;2351;50.812;12.872;2023-05-20T04:04:36;98510.97;;;9.07;100.00
5062;BME280;2351;50.812;12.872;2023-05-20T04:07:08;98503.78;;;9.09;100.00
5062;BME280;2351;50.812;12.872;2023-05-20T04:09:40;98504.44;;;9.13;100.00
5062;BME280;2351;50.812;12.872;2023-05-20T04:12:13;98508.25;;;9.09;100.00
5062;BME280;2351;50.812;12.872;2023-05-20T04:14:45;98502.97;;;9.09;100.00
5062;BME280;2351;50.812;12.872;2023-05-20T04:17:19;98503.50;;;9.14;100.00
5062;BME280;2351;50.812;12.872;2023-05-20T04:19:51;98506.13;;;9.14;100.00
5062;BME280;2351;50.812;12.872;2023-05-20T04:22:23;98505.88;;;9.17;100.00
5062;BME280;2351;50.812;12.872;2023-05-20T04:24:54;98505.66;;;9.20;100.00
5062;BME280;2351;50.812;12.872;2023-05-20T04:27:27;98500.38;;;9.20;100.00
5062;BME280;2351;50.812;12.872;2023-05-20T04:29:59;98507.34;;;9.21;100.00
5062;BME280;2351;50.812;12.872;2023-05-20T04:32:31;98511.41;;;9.14;100.00
5062;BME280;2351;50.812;12.872;2023-05-20T04:35:04;98507.81;;;9.15;100.00
5062;BME280;2351;50.812;12.872;2023-05-20T04:37:38;98505.41;;;9.12;100.00
5062;BME280;2351;50.812;12.872;2023-05-20T04:40:12;98506.13;;;9.14;100.00
5062;BME280;2351;50.812;12.872;2023-05-20T04:42:45;98506.22;;;9.12;100.00
5062;BME280;2351;50.812;12.872;2023-05-20T04:45:17;98505.88;;;9.17;100.00
5062;BME280;2351;50.812;12.872;2023-05-20T04:47:49;98498.50;;;9.22;100.00
5062;BME280;2351;50.812;12.872;2023-05-20T04:50:22;98500.47;;;9.31;100.00
5062;BME280;2351;50.812;12.872;2023-05-20T04:52:54;98492.81;;;9.40;100.00
5062;BME280;2351;50.812;12.872;2023-05-20T04:55:25;98498.63;;;9.45;100.00
5062;BME280;2351;50.812;12.872;2023-05-20T04:57:59;98491.34;;;9.48;100.00
5062;BME280;2351;50.812;12.872;2023-05-20T05:00:31;98490.88;;;9.55;100.00
5062;BME280;2351;50.812;12.872;2023-05-20T05:03:03;98507.19;;;9.48;100.00
5062;BME280;2351;50.812;12.872;2023-05-20T05:05:34;98500.66;;;9.41;100.00
5062;BME280;2351;50.812;12.872;2023-05-20T05:08:07;98496.63;;;9.48;100.00
5062;BME280;2351;50.812;12.872;2023-05-20T05:10:40;98495.75;;;9.48;100.00
5062;BME280;2351;50.812;12.872;2023-05-20T05:13:13;98496.28;;;9.53;100.00
5062;BME280;2351;50.812;12.872;2023-05-20T05:15:45;98489.09;;;9.55;100.00
5062;BME280;2351;50.812;12.872;2023-05-20T05:18:17;98484.56;;;9.69;100.00
5062;BME280;2351;50.812;12.872;2023-05-20T05:20:49;98484.13;;;9.75;100.00
5062;BME280;2351;50.812;12.872;2023-05-20T05:23:20;98487.03;;;9.83;100.00
5062;BME280;2351;50.812;12.872;2023-05-20T05:25:52;98492.56;;;9.80;100.00
5062;BME280;2351;50.812;12.872;2023-05-20T05:28:25;98491.25;;;9.86;100.00
5062;BME280;2351;50.812;12.872;2023-05-20T05:30:57;98490.81;;;9.92;100.00
5062;BME280;2351;50.812;12.872;2023-05-20T05:33:29;98484.31;;;9.96;100.00
5062;BME280;2351;50.812;12.872;2023-05-20T05:36:00;98483.75;;;10.04;100.00
5062;BME280;2351;50.812;12.872;2023-05-20T05:38:34;98480.31;;;10.15;100.00
5062;BME280;2351;50.812;12.872;2023-05-20T05:41:06;98482.13;;;10.25;100.00
5062;BME280;2351;50.812;12.872;2023-05-20T05:43:39;98484.78;;;10.25;100.00
5062;BME280;2351;50.812;12.872;2023-05-20T05:46:10;98481.63;;;10.32;100.00
5062;BME280;2351;50.812;12.872;2023-05-20T05:48:42;98480.69;;;10.33;100.00
5062;BME280;2351;50.812;12.872;2023-05-20T05:51:18;98482.97;;;10.26;100.00
5062;BME280;2351;50.812;12.872;2023-05-20T05:53:49;98477.31;;;10.31;100.00
5062;BME280;2351;50.812;12.872;2023-05-20T05:56:21;98479.13;;;10.30;100.00
5062;BME280;2351;50.812;12.872;2023-05-20T05:58:54;98468.69;;;10.40;100.00
5062;BME280;2351;50.812;12.872;2023-05-20T06:01:26;98475.44;;;10.55;100.00
5062;BME280;2351;50.812;12.872;2023-05-20T06:03:58;98481.47;;;10.58;100.00
5062;BME280;2351;50.812;12.872;2023-05-20T06:06:30;98478.09;;;10.55;100.00
5062;BME280;2351;50.812;12.872;2023-05-20T06:09:02;98486.66;;;10.70;100.00
5062;BME280;2351;50.812;12.872;2023-05-20T06:11:34;98476.91;;;10.82;100.00
5062;BME280;2351;50.812;12.872;2023-05-20T06:14:07;98476.78;;;10.95;100.00
5062;BME280;2351;50.812;12.872;2023-05-20T06:16:38;98470.91;;;10.92;100.00
5062;BME280;2351;50.812;12.872;2023-05-20T06:19:10;98469.69;;;10.84;100.00
5062;BME280;2351;50.812;12.872;2023-05-20T06:21:42;98466.56;;;10.91;100.00
5062;BME280;2351;50.812;12.872;2023-05-20T06:24:14;98468.97;;;10.82;100.00
5062;BME280;2351;50.812;12.872;2023-05-20T06:26:45;98468.00;;;10.83;100.00
5062;BME280;2351;50.812;12.872;2023-05-20T06:29:20;98470.41;;;10.87;100.00
5062;BME280;2351;50.812;12.872;2023-05-20T06:31:52;98471.09;;;11.00;100.00
5062;BME280;2351;50.812;12.872;2023-05-20T06:34:24;98466.06;;;11.08;100.00
5062;BME280;2351;50.812;12.872;2023-05-20T06:36:55;98469.41;;;10.99;100.00
5062;BME280;2351;50.812;12.872;2023-05-20T06:39:27;98466.63;;;11.12;100.00
5062;BME280;2351;50.812;12.872;2023-05-20T06:41:59;98465.03;;;11.32;100.00
5062;BME280;2351;50.812;12.872;2023-05-20T06:44:32;98461.28;;;11.46;100.00
5062;BME280;2351;50.812;12.872;2023-05-20T06:47:04;98467.78;;;11.42;100.00
5062;BME280;2351;50.812;12.872;2023-05-20T06:49:35;98457.91;;;11.44;100.00
5062;BME280;2351;50.812;12.872;2023-05-20T06:52:07;98462.50;;;11.42;100.00
5062;BME280;2351;50.812;12.872;2023-05-20T06:54:39;98469.59;;;11.41;100.00
5062;BME280;2351;50.812;12.872;2023-05-20T06:57:10;98462.97;;;11.47;100.00
5062;BME280;2351;50.812;12.872;2023-05-20T06:59:43;98455.84;;;11.48;100.00
5062;BME280;2351;50.812;12.872;2023-05-20T07:02:15;98448.22;;;11.54;100.00
5062;BME280;2351;50.812;12.872;2023-05-20T07:04:47;98453.81;;;11.72;100.00
5062;BME280;2351;50.812;12.872;2023-05-20T07:07:19;98453.31;;;11.79;100.00
5062;BME280;2351;50.812;12.872;2023-05-20T07:09:51;98447.75;;;11.82;100.00
5062;BME280;2351;50.812;12.872;2023-05-20T07:12:23;98450.34;;;11.93;100.00
5062;BME280;2351;50.812;12.872;2023-05-20T07:14:56;98436.69;;;12.09;100.00
5062;BME280;2351;50.812;12.872;2023-05-20T07:17:28;98434.34;;;12.16;100.00
5062;BME280;2351;50.812;12.872;2023-05-20T07:20:00;98438.78;;;12.37;100.00
5062;BME280;2351;50.812;12.872;2023-05-20T07:22:33;98426.31;;;12.58;100.00
5062;BME280;2351;50.812;12.872;2023-05-20T07:25:06;98430.28;;;12.74;100.00
5062;BME280;2351;50.812;12.872;2023-05-20T07:27:38;98423.03;;;12.86;97.66
5062;BME280;2351;50.812;12.872;2023-05-20T07:30:11;98423.78;;;12.98;97.26
5062;BME280;2351;50.812;12.872;2023-05-20T07:32:42;98413.34;;;13.25;97.92
5062;BME280;2351;50.812;12.872;2023-05-20T07:35:14;98404.44;;;13.46;95.75
5062;BME280;2351;50.812;12.872;2023-05-20T07:37:46;98406.91;;;13.38;90.01
5062;BME280;2351;50.812;12.872;2023-05-20T07:40:18;98410.03;;;13.43;92.68
5062;BME280;2351;50.812;12.872;2023-05-20T07:42:50;98406.41;;;13.64;91.97
5062;BME280;2351;50.812;12.872;2023-05-20T07:45:23;98403.31;;;13.78;91.27
5062;BME280;2351;50.812;12.872;2023-05-20T07:47:55;98418.59;;;13.86;89.81
5062;BME280;2351;50.812;12.872;2023-05-20T07:50:27;98409.63;;;13.77;89.08
5062;BME280;2351;50.812;12.872;2023-05-20T07:52:58;98403.59;;;13.85;89.45
5062;BME280;2351;50.812;12.872;2023-05-20T07:55:32;98405.13;;;13.88;86.96
5062;BME280;2351;50.812;12.872;2023-05-20T07:58:04;98404.13;;;13.89;88.21
5062;BME280;2351;50.812;12.872;2023-05-20T08:00:38;98397.56;;;13.93;88.96
5062;BME280;2351;50.812;12.872;2023-05-20T08:13:30;98391.88;;;14.63;86.69
5062;BME280;2351;50.812;12.872;2023-05-20T08:16:03;98386.63;;;14.81;87.27
5062;BME280;2351;50.812;12.872;2023-05-20T08:18:35;98378.19;;;14.86;83.84
5062;BME280;2351;50.812;12.872;2023-05-20T08:21:08;98369.47;;;14.94;85.10
5062;BME280;2351;50.812;12.872;2023-05-20T08:23:40;98373.75;;;15.04;82.46
5062;BME280;2351;50.812;12.872;2023-05-20T08:26:12;98375.94;;;15.09;82.99
5062;BME280;2351;50.812;12.872;2023-05-20T08:39:18;98365.06;;;15.39;80.65
5062;BME280;2351;50.812;12.872;2023-05-20T08:41:49;98359.88;;;15.37;81.28
5062;BME280;2351;50.812;12.872;2023-05-20T08:44:21;98359.03;;;15.36;80.12
5062;BME280;2351;50.812;12.872;2023-05-20T08:46:55;98356.84;;;15.50;80.99
5062;BME280;2351;50.812;12.872;2023-05-20T08:49:27;98359.53;;;15.76;81.79
5062;BME280;2351;50.812;12.872;2023-05-20T08:51:59;98356.03;;;15.76;78.71
5062;BME280;2351;50.812;12.872;2023-05-20T08:54:42;98345.69;;;15.73;79.74
5062;BME280;2351;50.812;12.872;2023-05-20T08:57:15;98347.97;;;15.68;80.74
5062;BME280;2351;50.812;12.872;2023-05-20T08:59:47;98346.88;;;15.78;78.11
5062;BME280;2351;50.812;12.872;2023-05-20T09:02:18;98351.84;;;15.91;80.17
5062;BME280;2351;50.812;12.872;2023-05-20T09:04:50;98345.47;;;16.10;78.29
5062;BME280;2351;50.812;12.872;2023-05-20T09:07:26;98344.34;;;16.21;79.08
5062;BME280;2351;50.812;12.872;2023-05-20T09:09:59;98338.78;;;16.41;78.42
5062;BME280;2351;50.812;12.872;2023-05-20T09:12:31;98329.53;;;16.35;77.64
5062;BME280;2351;50.812;12.872;2023-05-20T09:15:03;98339.63;;;16.15;76.32
5062;BME280;2351;50.812;12.872;2023-05-20T09:17:36;98337.34;;;16.20;77.10
5062;BME280;2351;50.812;12.872;2023-05-20T09:20:09;98326.25;;;16.41;77.96
5062;BME280;2351;50.812;12.872;2023-05-20T09:26:09;98329.31;;;16.55;75.57
5062;BME280;2351;50.812;12.872;2023-05-20T09:28:41;98330.91;;;16.39;75.76
5062;BME280;2351;50.812;12.872;2023-05-20T09:31:13;98326.84;;;16.27;75.96
5062;BME280;2351;50.812;12.872;2023-05-20T09:33:45;98325.53;;;16.31;76.28
5062;BME280;2351;50.812;12.872;2023-05-20T09:36:27;98318.53;;;16.30;76.46
5062;BME280;2351;50.812;12.872;2023-05-20T09:39:01;98314.38;;;16.36;77.56
5062;BME280;2351;50.812;12.872;2023-05-20T09:41:46;98310.13;;;16.60;77.38
5062;BME280;2351;50.812;12.872;2023-05-20T09:44:20;98299.47;;;16.76;76.83
5062;BME280;2351;50.812;12.872;2023-05-20T09:46:53;98297.84;;;16.83;75.35
5062;BME280;2351;50.812;12.872;2023-05-20T09:49:25;98298.44;;;16.61;76.42
5062;BME280;2351;50.812;12.872;2023-05-20T09:52:00;98285.91;;;16.53;75.29
5062;BME280;2351;50.812;12.872;2023-05-20T09:54:34;98298.22;;;16.46;76.85
5062;BME280;2351;50.812;12.872;2023-05-20T09:57:08;98282.06;;;16.55;77.42
5062;BME280;2351;50.812;12.872;2023-05-20T09:59:40;98280.94;;;16.75;77.99
5062;BME280;2351;50.812;12.872;2023-05-20T10:02:12;98282.16;;;16.97;76.99
5062;BME280;2351;50.812;12.872;2023-05-20T10:04:48;98286.38;;;17.08;76.42
5062;BME280;2351;50.812;12.872;2023-05-20T10:10:40;98266.31;;;17.28;77.31
5062;BME280;2351;50.812;12.872;2023-05-20T10:13:24;98262.28;;;17.49;76.24
5062;BME280;2351;50.812;12.872;2023-05-20T10:16:10;98270.16;;;17.51;75.75
5062;BME280;2351;50.812;12.872;2023-05-20T10:18:51;98256.91;;;17.74;75.99
5062;BME280;2351;50.812;12.872;2023-05-20T10:21:25;98262.44;;;17.72;74.90
5062;BME280;2351;50.812;12.872;2023-05-20T10:24:05;98271.13;;;17.74;76.31
5062;BME280;2351;50.812;12.872;2023-05-20T10:26:38;98266.25;;;17.78;72.99
5062;BME280;2351;50.812;12.872;2023-05-20T10:29:17;98257.03;;;17.81;75.40
5062;BME280;2351;50.812;12.872;2023-05-20T10:38:54;98257.13;;;17.23;77.47
5062;BME280;2351;50.812;12.872;2023-05-20T10:41:26;98259.13;;;17.04;78.27
5062;BME280;2351;50.812;12.872;2023-05-20T10:43:59;98262.31;;;17.08;77.97
5062;BME280;2351;50.812;12.872;2023-05-20T10:46:34;98261.09;;;16.94;79.38
5062;BME280;2351;50.812;12.872;2023-05-20T10:49:16;98260.97;;;16.95;79.59
5062;BME280;2351;50.812;12.872;2023-05-20T10:51:49;98247.91;;;17.00;79.15
5062;BME280;2351;50.812;12.872;2023-05-20T10:54:21;98243.91;;;17.05;78.57
5062;BME280;2351;50.812;12.872;2023-05-20T10:56:53;98236.56;;;16.98;79.97
5062;BME280;2351;50.812;12.872;2023-05-20T10:59:25;98239.75;;;17.02;80.05
5062;BME280;2351;50.812;12.872;2023-05-20T11:01:59;98234.41;;;17.02;79.95
5062;BME280;2351;50.812;12.872;2023-05-20T11:04:31;98233.06;;;17.14;80.66
5062;BME280;2351;50.812;12.872;2023-05-20T11:07:03;98220.00;;;17.53;81.73
5062;BME280;2351;50.812;12.872;2023-05-20T11:09:35;98229.06;;;17.91;76.60
5062;BME280;2351;50.812;12.872;2023-05-20T11:12:07;98222.88;;;18.08;76.57
5062;BME280;2351;50.812;12.872;2023-05-20T11:14:39;98230.56;;;18.11;74.88
5062;BME280;2351;50.812;12.872;2023-05-20T11:24:05;98203.75;;;18.74;72.99
5062;BME280;2351;50.812;12.872;2023-05-20T11:29:49;98193.81;;;19.06;73.44
5062;BME280;2351;50.812;12.872;2023-05-20T11:32:26;98195.81;;;18.80;72.42
5062;BME280;2351;50.812;12.872;2023-05-20T11:34:57;98190.84;;;19.01;73.25
5062;BME280;2351;50.812;12.872;2023-05-20T11:37:29;98183.91;;;19.06;71.36
5062;BME280;2351;50.812;12.872;2023-05-20T11:40:06;98190.69;;;19.17;71.87
5062;BME280;2351;50.812;12.872;2023-05-20T11:42:42;98179.75;;;19.04;71.18
5062;BME280;2351;50.812;12.872;2023-05-20T11:45:14;98168.38;;;19.02;72.02
5062;BME280;2351;50.812;12.872;2023-05-20T11:47:46;98165.78;;;19.08;72.37
5062;BME280;2351;50.812;12.872;2023-05-20T11:50:33;98172.63;;;19.11;71.56
5062;BME280;2351;50.812;12.872;2023-05-20T11:53:06;98172.53;;;19.04;70.73
5062;BME280;2351;50.812;12.872;2023-05-20T11:55:45;98178.19;;;19.09;70.68
5062;BME280;2351;50.812;12.872;2023-05-20T11:58:19;98182.09;;;19.07;70.83
5062;BME280;2351;50.812;12.872;2023-05-20T12:00:51;98174.75;;;19.01;70.67
5062;BME280;2351;50.812;12.872;2023-05-20T12:03:24;98179.75;;;19.04;70.94
5062;BME280;2351;50.812;12.872;2023-05-20T12:05:56;98174.03;;;19.22;70.14
5062;BME280;2351;50.812;12.872;2023-05-20T12:08:31;98177.41;;;19.39;70.12
5062;BME280;2351;50.812;12.872;2023-05-20T12:11:04;98175.56;;;19.54;67.93
5062;BME280;2351;50.812;12.872;2023-05-20T12:13:36;98173.41;;;19.35;68.10
5062;BME280;2351;50.812;12.872;2023-05-20T12:16:08;98182.56;;;19.25;68.99
5062;BME280;2351;50.812;12.872;2023-05-20T12:18:40;98153.13;;;19.17;69.87
5062;BME280;2351;50.812;12.872;2023-05-20T12:21:11;98169.94;;;19.49;69.92
5062;BME280;2351;50.812;12.872;2023-05-20T12:23:43;98154.38;;;19.60;67.69
5062;BME280;2351;50.812;12.872;2023-05-20T12:26:16;98157.69;;;19.47;68.33
5062;BME280;2351;50.812;12.872;2023-05-20T12:28:48;98146.53;;;19.73;69.48
5062;BME280;2351;50.812;12.872;2023-05-20T12:31:20;98147.63;;;19.79;67.13
5062;BME280;2351;50.812;12.872;2023-05-20T12:33:51;98139.00;;;19.83;67.97
5062;BME280;2351;50.812;12.872;2023-05-20T12:43:24;98133.78;;;20.12;67.63
5062;BME280;2351;50.812;12.872;2023-05-20T12:45:56;98127.28;;;20.21;67.37
5062;BME280;2351;50.812;12.872;2023-05-20T12:48:28;98132.13;;;20.11;65.79
5062;BME280;2351;50.812;12.872;2023-05-20T12:50:59;98138.09;;;19.91;67.02
5062;BME280;2351;50.812;12.872;2023-05-20T12:53:31;98158.72;;;19.76;66.66
5062;BME280;2351;50.812;12.872;2023-05-20T12:56:04;98141.69;;;19.53;68.50
5062;BME280;2351;50.812;12.872;2023-05-20T12:58:37;98136.22;;;19.62;68.59
5062;BME280;2351;50.812;12.872;2023-05-20T13:01:09;98130.22;;;19.60;68.03
5062;BME280;2351;50.812;12.872;2023-05-20T13:03:41;98131.44;;;19.57;69.07
5062;BME280;2351;50.812;12.872;2023-05-20T13:06:12;98128.47;;;19.67;69.29
5062;BME280;2351;50.812;12.872;2023-05-20T13:08:44;98120.41;;;19.82;69.52
5062;BME280;2351;50.812;12.872;2023-05-20T13:11:19;98127.97;;;19.78;69.60
5062;BME280;2351;50.812;12.872;2023-05-20T13:13:54;98112.34;;;19.97;70.29
5062;BME280;2351;50.812;12.872;2023-05-20T13:16:26;98119.91;;;20.08;69.59
5062;BME280;2351;50.812;12.872;2023-05-20T13:18:58;98114.84;;;19.98;68.01
5062;BME280;2351;50.812;12.872;2023-05-20T13:21:30;98119.25;;;20.06;68.29
5062;BME280;2351;50.812;12.872;2023-05-20T13:24:11;98111.22;;;20.28;67.44
5062;BME280;2351;50.812;12.872;2023-05-20T13:26:45;98100.69;;;20.70;67.98
5062;BME280;2351;50.812;12.872;2023-05-20T13:29:18;98096.06;;;20.85;66.97
5062;BME280;2351;50.812;12.872;2023-05-20T13:31:50;98092.00;;;20.96;66.65
5062;BME280;2351;50.812;12.872;2023-05-20T13:34:22;98087.94;;;20.79;66.31
5062;BME280;2351;50.812;12.872;2023-05-20T13:36:54;98087.91;;;21.00;67.12
5062;BME280;2351;50.812;12.872;2023-05-20T13:39:26;98082.06;;;20.97;62.87
5062;BME280;2351;50.812;12.872;2023-05-20T13:41:58;98083.72;;;20.98;61.11
5062;BME280;2351;50.812;12.872;2023-05-20T13:44:32;98082.38;;;20.80;61.48
5062;BME280;2351;50.812;12.872;2023-05-20T13:47:04;98080.13;;;20.84;61.77
5062;BME280;2351;50.812;12.872;2023-05-20T13:49:35;98076.81;;;20.82;61.93
5062;BME280;2351;50.812;12.872;2023-05-20T13:52:07;98070.88;;;20.93;62.03
5062;BME280;2351;50.812;12.872;2023-05-20T13:54:39;98075.28;;;21.01;61.91
5062;BME280;2351;50.812;12.872;2023-05-20T13:57:12;98075.91;;;21.03;63.22
5062;BME280;2351;50.812;12.872;2023-05-20T13:59:45;98080.50;;;21.09;63.38
5062;BME280;2351;50.812;12.872;2023-05-20T14:02:17;98082.13;;;21.03;64.17
5062;BME280;2351;50.812;12.872;2023-05-20T14:04:48;98070.88;;;20.93;64.84
5062;BME280;2351;50.812;12.872;2023-05-20T14:07:20;98069.47;;;20.97;64.80
5062;BME280;2351;50.812;12.872;2023-05-20T14:09:52;98075.28;;;21.01;64.64
5062;BME280;2351;50.812;12.872;2023-05-20T14:12:24;98068.44;;;20.98;64.43
5062;BME280;2351;50.812;12.872;2023-05-20T14:14:57;98061.50;;;20.82;65.59
5062;BME280;2351;50.812;12.872;2023-05-20T14:17:29;98056.31;;;20.81;65.35
5062;BME280;2351;50.812;12.872;2023-05-20T14:20:00;98059.22;;;20.86;65.46
5062;BME280;2351;50.812;12.872;2023-05-20T14:22:32;98052.59;;;20.82;65.70
5062;BME280;2351;50.812;12.872;2023-05-20T14:25:05;98050.94;;;20.81;65.47
5062;BME280;2351;50.812;12.872;2023-05-20T14:27:36;98049.81;;;20.75;65.94
5062;BME280;2351;50.812;12.872;2023-05-20T14:30:10;98048.88;;;20.83;66.31